EDFH/HHN METAR and TAF weather

Enter ICAO airport designator
Station Type Date Time Source
EDFH METAR 2019/12/07 09:50 UTC NOAA

EDFH 070950Z 27013KT 9999 BKN022 06/05 Q1015


Station Type Date Time Source
EDFH Decoded METAR 2019/12/07 09:50 UTC NOAA

Hahn, Germany (EDFH) 49-57N 007-16E 498M
Dec 07, 2019 - 04:50 AM EST / 2019.12.07 0950 UTC
Wind: from the W (270 degrees) at 15 MPH (13 KT):0
Visibility: greater than 7 mile(s):0
Sky conditions: mostly cloudy
Temperature: 42 F (6 C)
Dew Point: 41 F (5 C)
Relative Humidity: 93%
Pressure (altimeter): 29.97 in. Hg (1015 hPa)
ob: EDFH 070950Z 27013KT 9999 BKN022 06/05 Q1015
cycle: 10

Station Type Date Time Source
EDFH TAF 2019/12/07 06:27 UTC NOAA

TAF EDFH 070500Z 0706/0806 26015G25KT 9999 BKN015
TEMPO 0706/0716 4000 -RADZ BKN008
BECMG 0707/0710 26012KT
TEMPO 0716/0806 4000 BR BKN008 PROB30
TEMPO 0722/0806 2500 BR BKN004
BECMG 0803/0806 22015G25KT

Example: see airport list